Time;durP1;ratioP1;P1;durP2;ratioP2;P2;SDS_P1;SDS_P2;PMS_P1;PMS_P2;Temp;Humidity;BMP_temperature;BMP_pressure;BME280_temperature;BME280_humidity;BME280_pressure;Samples;Min_cycle;Max_cycle;Signal;HPM_P1;HPM_P2
2022/07/13 00:01:58;;;;;;;0.82;0.40;;;;;;;18.26;51.69;100589.84;10527255;28;20040;-72
2022/07/13 00:07:00;;;;;;;0.82;0.50;;;;;;;18.14;51.95;100587.84;10525853;28;20523;-72
2022/07/13 00:12:02;;;;;;;1.98;0.45;;;;;;;17.98;52.38;100585.16;10543652;28;20405;-72
2022/07/13 00:17:03;;;;;;;1.13;0.47;;;;;;;17.90;52.61;100584.72;10544053;28;20043;-72
2022/07/13 00:22:05;;;;;;;0.75;0.50;;;;;;;17.92;52.44;100584.63;10524350;28;20048;-72
2022/07/13 00:27:07;;;;;;;1.20;0.60;;;;;;;17.84;52.76;100577.03;10524806;28;20048;-72
2022/07/13 00:32:08;;;;;;;1.65;0.50;;;;;;;17.81;52.92;100590.53;10524167;28;20083;-72
2022/07/13 00:37:10;;;;;;;0.75;0.55;;;;;;;17.82;53.03;100574.47;10544575;28;20048;-72
2022/07/13 00:42:12;;;;;;;1.92;0.45;;;;;;;17.58;53.75;100584.56;10526727;28;20067;-72
2022/07/13 00:47:14;;;;;;;0.85;0.60;;;;;;;17.50;54.27;100583.25;10543204;28;20054;-72
2022/07/13 00:52:16;;;;;;;0.63;0.50;;;;;;;17.51;54.38;100572.53;10524618;28;20044;-72
2022/07/13 00:57:19;;;;;;;1.20;0.40;;;;;;;17.49;55.13;100577.09;10543336;28;20055;-72
2022/07/13 01:02:21;;;;;;;0.85;0.70;;;;;;;17.20;55.90;100578.56;10542134;28;20032;-72
2022/07/13 01:07:22;;;;;;;0.55;0.55;;;;;;;17.13;56.60;100567.41;10542132;28;20486;-72
2022/07/13 01:12:27;;;;;;;0.60;0.60;;;;;;;17.11;57.03;100563.94;10542607;28;20121;-72
2022/07/13 01:17:31;;;;;;;1.88;0.77;;;;;;;16.93;57.29;100559.56;10542763;28;20427;-72
2022/07/13 01:22:40;;;;;;;1.50;0.80;;;;;;;16.79;58.13;100573.50;10523137;28;20533;-72
2022/07/13 01:27:43;;;;;;;1.00;0.70;;;;;;;16.63;58.31;100570.69;10524636;28;20051;-72
2022/07/13 01:32:47;;;;;;;2.42;0.80;;;;;;;16.56;58.62;100563.13;10540791;28;20066;-72
2022/07/13 01:37:50;;;;;;;1.48;1.10;;;;;;;16.67;59.38;100570.56;10523704;28;20079;-72
2022/07/13 01:42:52;;;;;;;1.33;0.80;;;;;;;16.48;59.52;100570.59;10541666;28;20043;-72
2022/07/13 01:47:56;;;;;;;1.60;1.02;;;;;;;16.77;59.74;100566.53;10541243;28;20070;-72
2022/07/13 01:52:59;;;;;;;1.40;0.90;;;;;;;16.67;60.32;100567.91;10522522;28;20052;-72
2022/07/13 01:58:02;;;;;;;1.35;1.00;;;;;;;16.87;59.76;100562.53;10522365;28;20040;-72
2022/07/13 02:03:03;;;;;;;1.85;1.17;;;;;;;16.77;60.13;100546.16;10523014;28;20068;-72
2022/07/13 02:08:06;;;;;;;2.00;1.10;;;;;;;16.78;60.45;100529.31;10522856;28;20094;-72
2022/07/13 02:13:14;;;;;;;1.60;0.90;;;;;;;16.67;60.94;100523.63;10523914;28;20198;-72
2022/07/13 02:18:15;;;;;;;6.07;0.93;;;;;;;16.74;60.90;100503.00;10523382;28;20066;-72
2022/07/13 02:23:17;;;;;;;3.47;1.02;;;;;;;16.89;60.92;100510.19;10522273;28;20067;-72
2022/07/13 02:28:19;;;;;;;1.73;0.90;;;;;;;16.83;60.54;100498.09;10522640;28;20139;-70
2022/07/13 02:33:20;;;;;;;2.85;1.00;;;;;;;16.82;60.76;100499.03;10540548;28;20085;-70
2022/07/13 02:38:22;;;;;;;2.55;1.00;;;;;;;16.73;61.48;100502.13;10522107;28;20070;-70
2022/07/13 02:43:25;;;;;;;2.30;1.00;;;;;;;16.70;61.25;100520.84;10525973;28;20044;-70
2022/07/13 02:48:26;;;;;;;1.67;1.13;;;;;;;16.61;61.11;100511.53;10547970;28;20485;-71
2022/07/13 02:53:29;;;;;;;2.85;1.27;;;;;;;16.64;61.57;100506.09;10528706;28;20040;-71
2022/07/13 02:58:33;;;;;;;2.00;1.40;;;;;;;16.72;61.52;100507.47;10529229;28;20044;-71
2022/07/13 03:03:35;;;;;;;3.45;1.40;;;;;;;16.81;61.43;100505.25;10529091;28;20479;-71
2022/07/13 03:08:39;;;;;;;1.70;1.40;;;;;;;16.80;61.86;100498.22;10530072;28;20458;-71
2022/07/13 03:13:41;;;;;;;2.42;1.45;;;;;;;16.78;62.28;100496.59;10530716;28;20050;-71
2022/07/13 03:18:43;;;;;;;2.90;1.63;;;;;;;16.73;62.73;100498.59;10529998;28;20048;-71
2022/07/13 03:23:45;;;;;;;4.93;1.85;;;;;;;16.86;62.07;100497.91;10529313;28;20044;-71
2022/07/13 03:28:47;;;;;;;1.70;1.48;;;;;;;16.78;62.35;100493.97;10528878;28;20048;-71
2022/07/13 03:33:49;;;;;;;3.08;1.50;;;;;;;16.69;62.83;100500.53;10528347;28;20040;-71
2022/07/13 03:38:51;;;;;;;3.00;1.33;;;;;;;16.70;62.99;100504.91;10528579;28;20101;-71
2022/07/13 03:43:53;;;;;;;2.97;1.70;;;;;;;16.73;62.93;100506.56;10527797;28;20047;-71
2022/07/13 03:48:55;;;;;;;2.72;1.30;;;;;;;16.72;63.14;100518.09;10528296;28;20139;-71
2022/07/13 03:53:58;;;;;;;1.55;1.42;;;;;;;16.82;62.74;100512.31;10526938;28;20127;-71
2022/07/13 03:59:01;;;;;;;1.88;1.35;;;;;;;16.79;63.13;100506.28;10527779;28;20097;-71
2022/07/13 04:04:03;;;;;;;2.92;1.30;;;;;;;16.91;62.99;100511.00;10527174;28;20047;-71
2022/07/13 04:09:05;;;;;;;3.13;1.42;;;;;;;17.02;62.16;100511.28;10527788;28;20097;-71
2022/07/13 04:14:08;;;;;;;2.30;1.50;;;;;;;17.13;61.96;100506.31;10525391;28;20070;-71
2022/07/13 04:19:10;;;;;;;2.17;1.10;;;;;;;17.17;61.37;100495.50;10525741;28;20512;-71
2022/07/13 04:24:13;;;;;;;2.20;1.30;;;;;;;17.18;61.70;100495.44;10525222;28;20044;-71
2022/07/13 04:29:16;;;;;;;2.42;1.42;;;;;;;17.08;62.30;100495.03;10525203;28;20481;-71
2022/07/13 04:34:18;;;;;;;3.10;1.33;;;;;;;17.13;61.92;100501.00;10525661;28;20071;-71
2022/07/13 04:39:20;;;;;;;2.50;1.38;;;;;;;17.09;62.01;100491.47;10525680;28;20087;-71
2022/07/13 04:44:22;;;;;;;3.63;1.42;;;;;;;17.06;62.04;100478.31;10524661;28;20040;-71
2022/07/13 04:49:24;;;;;;;1.92;1.20;;;;;;;17.15;61.51;100484.97;10524298;28;20044;-71
2022/07/13 04:54:29;;;;;;;2.55;1.42;;;;;;;17.18;61.68;100489.22;10523704;28;20122;-71
2022/07/13 04:59:31;;;;;;;2.50;1.25;;;;;;;17.24;61.24;100480.97;10523686;28;20064;-71
2022/07/13 05:04:33;;;;;;;2.70;1.33;;;;;;;17.28;61.26;100503.78;10522879;28;20459;-71
2022/07/13 05:09:35;;;;;;;3.05;1.70;;;;;;;17.29;61.59;100500.19;10523098;28;20048;-71
2022/07/13 05:14:37;;;;;;;3.22;1.45;;;;;;;17.46;60.95;100496.66;10541398;28;20401;-71
2022/07/13 05:19:39;;;;;;;2.17;1.33;;;;;;;17.52;61.29;100499.81;10522806;28;20048;-71
2022/07/13 05:24:43;;;;;;;2.95;1.35;;;;;;;17.54;61.34;100502.41;10522497;28;20098;-71
2022/07/13 05:29:50;;;;;;;3.00;1.33;;;;;;;17.67;60.71;100503.47;10522709;28;20055;-71
2022/07/13 05:34:53;;;;;;;4.63;1.67;;;;;;;17.70;60.74;100508.59;10522549;28;20044;-71
2022/07/13 05:39:55;;;;;;;1.90;1.35;;;;;;;17.86;60.48;100503.38;10514537;28;20505;-71
2022/07/13 05:44:57;;;;;;;2.80;1.40;;;;;;;17.99;59.69;100507.06;10522015;28;20044;-71
2022/07/13 05:49:59;;;;;;;1.98;1.15;;;;;;;18.28;59.10;100501.91;10505352;28;20134;-71
2022/07/13 05:55:03;;;;;;;4.10;1.33;;;;;;;18.51;58.47;100504.16;10505925;28;20101;-71
2022/07/13 06:00:10;;;;;;;9.88;1.85;;;;;;;18.77;57.48;100509.78;10554170;22;20048;-72
2022/07/13 06:05:12;;;;;;;2.30;1.40;;;;;;;18.69;57.44;100512.94;10544305;28;20102;-73
2022/07/13 06:10:14;;;;;;;3.17;1.10;;;;;;;18.86;56.99;100517.28;10540754;28;20044;-72
2022/07/13 06:15:16;;;;;;;4.72;1.90;;;;;;;19.42;56.37;100502.34;10523065;28;20386;-72
2022/07/13 06:20:17;;;;;;;4.78;1.40;;;;;;;19.57;55.54;100501.44;10530674;28;20048;-73
2022/07/13 06:25:19;;;;;;;3.83;1.73;;;;;;;19.69;54.92;100493.63;10549195;28;20044;-73
2022/07/13 06:30:21;;;;;;;6.75;1.60;;;;;;;19.70;55.37;100501.56;10549195;28;20044;-74
2022/07/13 06:35:23;;;;;;;5.00;1.98;;;;;;;19.55;55.10;100489.13;10531138;28;20523;-73
2022/07/13 06:40:25;;;;;;;5.28;1.40;;;;;;;20.24;52.95;100490.16;10531092;28;20044;-73
2022/07/13 06:45:26;;;;;;;3.17;1.20;;;;;;;20.15;53.66;100487.09;10548202;28;20050;-73
2022/07/13 06:50:28;;;;;;;4.00;1.77;;;;;;;20.67;51.81;100490.88;10549314;28;20044;-72
2022/07/13 06:55:30;;;;;;;4.25;1.20;;;;;;;21.16;50.98;100492.91;10530830;28;20048;-73
2022/07/13 07:00:31;;;;;;;4.22;1.50;;;;;;;21.15;51.21;100493.88;10548454;28;20067;-72
2022/07/13 07:05:34;;;;;;;4.28;1.80;;;;;;;21.58;50.58;100489.09;10548847;28;20048;-72
2022/07/13 07:10:37;;;;;;;3.75;1.52;;;;;;;21.62;50.48;100489.75;10547595;28;20468;-73
2022/07/13 07:15:41;;;;;;;6.18;1.30;;;;;;;21.71;51.00;100490.91;10548496;28;20040;-72
2022/07/13 07:20:42;;;;;;;3.40;1.30;;;;;;;22.29;48.82;100484.06;10548197;28;20040;-73
2022/07/13 07:25:44;;;;;;;4.75;1.48;;;;;;;22.31;49.19;100474.97;10530216;28;20047;-72
2022/07/13 07:30:46;;;;;;;2.95;1.50;;;;;;;22.38;49.09;100472.69;10548911;28;20400;-73
2022/07/13 07:35:48;;;;;;;5.45;1.48;;;;;;;22.34;49.59;100468.50;10547069;28;20063;-73
2022/07/13 07:40:49;;;;;;;9.07;1.90;;;;;;;22.25;49.55;100472.72;10546409;28;20445;-72
2022/07/13 07:45:52;;;;;;;7.13;1.70;;;;;;;21.97;50.72;100468.50;10528324;28;20079;-72
2022/07/13 07:50:54;;;;;;;11.82;1.60;;;;;;;22.73;49.74;100461.16;10538084;28;20413;-73
2022/07/13 07:55:56;;;;;;;6.53;1.50;;;;;;;23.40;46.46;100440.72;10545980;28;20089;-74
2022/07/13 08:00:57;;;;;;;4.03;1.40;;;;;;;23.82;46.80;100429.41;10546068;28;20074;-73
2022/07/13 08:05:59;;;;;;;3.45;1.20;;;;;;;24.81;44.24;100413.09;10545412;28;20051;-72
2022/07/13 08:11:03;;;;;;;3.22;1.20;;;;;;;25.36;40.75;100407.47;10527202;28;20055;-72
2022/07/13 08:16:05;;;;;;;3.78;0.98;;;;;;;25.64;40.50;100398.69;10547658;28;20051;-72
2022/07/13 08:21:07;;;;;;;6.93;1.50;;;;;;;26.08;41.17;100388.47;10527436;28;20097;-73
2022/07/13 08:26:08;;;;;;;4.57;1.40;;;;;;;26.54;38.75;100381.56;10526430;28;20048;-72
2022/07/13 08:31:15;;;;;;;1.90;0.60;;;;;;;27.77;33.84;100383.38;10544863;28;20438;-72
2022/07/13 08:41:38;;;;;;;0.60;0.45;;;;;;;28.13;32.63;100379.69;10544503;28;20109;-72
2022/07/13 08:46:40;;;;;;;1.33;0.60;;;;;;;27.54;33.06;100385.59;10543809;28;20052;-72
2022/07/13 08:51:44;;;;;;;4.28;0.70;;;;;;;27.54;33.44;100375.63;10543395;28;20455;-72
2022/07/13 08:56:46;;;;;;;1.70;0.47;;;;;;;27.49;33.12;100364.41;10542089;28;20085;-71
2022/07/13 09:01:49;;;;;;;1.95;0.43;;;;;;;28.03;32.50;100367.28;10543758;28;20498;-73
2022/07/13 09:06:50;;;;;;;0.68;0.50;;;;;;;28.27;32.45;100361.25;10543155;28;20497;-73
2022/07/13 09:11:52;;;;;;;2.67;0.45;;;;;;;28.57;31.80;100370.84;10543658;28;20490;-73
2022/07/13 09:16:54;;;;;;;1.00;0.38;;;;;;;28.66;30.53;100365.34;10542928;28;20048;-72
2022/07/13 09:22:12;;;;;;;0.80;0.40;;;;;;;29.30;29.25;100359.66;10543514;28;20573;-73
2022/07/13 09:27:15;;;;;;;1.35;0.40;;;;;;;29.48;29.86;100362.28;10543933;28;20085;-72
2022/07/13 09:32:17;;;;;;;0.55;0.40;;;;;;;29.52;29.16;100355.53;10542998;28;20060;-75
2022/07/13 09:37:22;;;;;;;1.30;0.30;;;;;;;29.67;28.60;100369.34;10524453;28;20044;-72
2022/07/13 09:42:31;;;;;;;0.95;0.30;;;;;;;29.81;28.51;100360.56;10543606;28;20075;-73
2022/07/13 09:47:33;;;;;;;0.63;0.40;;;;;;;29.77;27.04;100351.91;10524659;28;20507;-72
2022/07/13 09:52:35;;;;;;;1.02;0.30;;;;;;;29.92;26.74;100352.13;10541529;28;20048;-72
2022/07/13 09:57:51;;;;;;;1.30;0.70;;;;;;;29.51;28.43;100345.72;10542415;28;20059;-71
2022/07/13 10:03:03;;;;;;;1.30;0.40;;;;;;;30.10;27.57;100333.84;10525267;28;20042;-73
2022/07/13 10:08:04;;;;;;;0.85;0.30;;;;;;;29.98;27.64;100329.78;10541513;28;20074;-73
2022/07/13 10:13:06;;;;;;;1.58;0.30;;;;;;;30.42;27.30;100340.34;10523404;28;20067;-73
2022/07/13 10:18:10;;;;;;;2.63;0.40;;;;;;;30.84;25.84;100339.31;10541904;28;20047;-73
2022/07/13 10:23:12;;;;;;;1.65;0.30;;;;;;;30.30;26.81;100330.84;10540807;28;20040;-73
2022/07/13 10:28:34;;;;;;;0.32;0.20;;;;;;;30.25;28.12;100322.38;10540934;28;20408;-73
2022/07/13 10:33:36;;;;;;;1.15;0.30;;;;;;;30.98;25.42;100330.44;10541478;28;20044;-73
2022/07/13 10:38:38;;;;;;;0.57;0.20;;;;;;;30.62;22.38;100327.28;10523649;28;20119;-73
2022/07/13 10:43:40;;;;;;;0.73;0.35;;;;;;;31.27;25.86;100320.88;10523641;28;20127;-72
2022/07/13 10:48:42;;;;;;;1.52;0.40;;;;;;;31.48;22.03;100314.84;10540498;28;20048;-73
2022/07/13 10:53:46;;;;;;;0.40;0.30;;;;;;;31.58;24.34;100327.22;10540186;28;20085;-72
2022/07/13 10:58:49;;;;;;;0.52;0.40;;;;;;;30.98;26.40;100325.03;10523512;28;20456;-73
2022/07/13 11:03:51;;;;;;;0.85;0.40;;;;;;;30.09;26.96;100318.59;10543182;28;20122;-73
2022/07/13 11:09:10;;;;;;;1.58;0.50;;;;;;;30.75;27.71;100318.66;10547972;28;20540;-73
2022/07/13 11:14:38;;;;;;;1.48;0.40;;;;;;;29.98;29.64;100309.97;10548354;28;20046;-72
2022/07/13 11:19:50;;;;;;;5.93;0.50;;;;;;;30.21;29.56;100310.19;10547507;28;20047;-73
2022/07/13 11:25:14;;;;;;;1.33;0.30;;;;;;;30.18;27.51;100314.06;10547743;28;20028;-72
2022/07/13 11:30:26;;;;;;;0.87;0.40;;;;;;;30.72;27.96;100292.69;10546981;28;20046;-72
2022/07/13 11:35:28;;;;;;;1.33;0.50;;;;;;;30.77;27.90;100289.44;10548007;28;20044;-73
2022/07/13 11:40:31;;;;;;;1.35;0.50;;;;;;;31.26;27.85;100267.59;10529239;28;20060;-72
2022/07/13 11:45:33;;;;;;;1.73;0.65;;;;;;;31.11;27.69;100265.59;10549121;28;20040;-72
2022/07/13 11:50:42;;;;;;;0.70;0.40;;;;;;;31.96;26.19;100266.69;10548070;28;20465;-72
2022/07/13 11:55:44;;;;;;;2.92;0.63;;;;;;;31.29;26.76;100262.66;10547412;28;20040;-71
2022/07/13 12:00:46;;;;;;;1.38;0.45;;;;;;;30.97;27.52;100252.75;10557793;22;20064;-68
2022/07/13 12:05:49;;;;;;;0.45;0.45;;;;;;;30.55;27.02;100245.75;10545204;28;20036;-69
2022/07/13 12:10:51;;;;;;;0.95;0.50;;;;;;;30.69;27.40;100229.78;10545594;28;20040;-69
2022/07/13 12:15:53;;;;;;;10.32;0.60;;;;;;;30.80;26.60;100226.69;10543034;28;20072;-68
2022/07/13 12:20:57;;;;;;;3.38;0.50;;;;;;;30.65;26.77;100221.97;10526421;28;20051;-68
2022/07/13 12:26:06;;;;;;;4.70;0.45;;;;;;;30.43;26.64;100230.00;10544176;28;20046;-68
2022/07/13 12:31:08;;;;;;;1.52;0.30;;;;;;;30.61;27.86;100239.63;10543580;28;20043;-68
2022/07/13 12:36:12;;;;;;;0.38;0.35;;;;;;;31.04;27.02;100239.34;10543836;28;20071;-68
2022/07/13 12:41:26;;;;;;;1.58;0.47;;;;;;;30.49;26.33;100243.69;10544050;28;20040;-69
2022/07/13 12:47:04;;;;;;;0.50;0.30;;;;;;;30.04;26.78;100239.66;10543727;28;20040;-68
2022/07/13 12:52:11;;;;;;;1.15;0.40;;;;;;;30.18;27.84;100230.03;10399671;28;20072;-69
2022/07/13 12:57:18;;;;;;;2.03;0.50;;;;;;;30.37;27.18;100235.09;10415071;28;20097;-69
2022/07/13 13:02:20;;;;;;;1.08;0.43;;;;;;;30.55;27.12;100232.19;10414079;28;20057;-68
2022/07/13 13:07:22;;;;;;;2.63;0.25;;;;;;;30.64;26.38;100222.16;10414304;28;20096;-68
2022/07/13 13:12:23;;;;;;;1.67;0.40;;;;;;;31.12;25.61;100220.28;10413839;28;20537;-69
2022/07/13 13:17:26;;;;;;;1.02;0.30;;;;;;;30.96;26.76;100209.50;10414538;28;20057;-69
2022/07/13 13:22:28;;;;;;;2.35;0.45;;;;;;;30.84;25.51;100203.63;10402287;28;20046;-71
2022/07/13 13:27:29;;;;;;;1.17;0.30;;;;;;;31.20;25.01;100206.66;10541331;28;20040;-70
2022/07/13 13:32:51;;;;;;;1.65;0.30;;;;;;;31.25;25.15;100187.13;10541476;28;20071;-69
2022/07/13 13:37:58;;;;;;;1.67;0.50;;;;;;;31.29;25.98;100185.75;10523398;28;20397;-69
2022/07/13 13:42:59;;;;;;;1.20;0.40;;;;;;;31.37;24.83;100189.28;10540639;28;20072;-69
2022/07/13 13:48:01;;;;;;;1.33;0.30;;;;;;;30.88;25.43;100180.53;10522138;28;20039;-68
2022/07/13 13:53:03;;;;;;;4.85;0.30;;;;;;;30.25;26.13;100175.97;10540083;28;20134;-68
2022/07/13 13:58:04;;;;;;;2.72;0.50;;;;;;;29.99;26.78;100173.44;10522046;28;20043;-68
2022/07/13 14:03:06;;;;;;;0.63;0.50;;;;;;;29.99;26.04;100157.16;10539501;28;20408;-68
2022/07/13 14:08:08;;;;;;;1.20;0.35;;;;;;;29.83;26.65;100166.16;10539739;28;20044;-68
2022/07/13 14:13:10;;;;;;;2.50;0.40;;;;;;;29.84;26.76;100159.72;10539850;28;20044;-68
2022/07/13 14:18:11;;;;;;;0.52;0.50;;;;;;;30.13;27.58;100151.88;10539749;28;20057;-68
2022/07/13 14:23:13;;;;;;;2.40;0.80;;;;;;;30.58;25.83;100144.16;10539818;28;20051;-69
2022/07/13 14:28:15;;;;;;;2.63;0.60;;;;;;;30.92;25.35;100141.16;10539826;28;20048;-68
2022/07/13 14:33:17;;;;;;;1.35;0.50;;;;;;;31.08;25.51;100138.34;10539124;28;20561;-68
2022/07/13 14:38:19;;;;;;;1.15;0.40;;;;;;;31.43;25.13;100138.81;10542514;28;20040;-69
2022/07/13 14:43:33;;;;;;;1.90;0.60;;;;;;;31.24;24.97;100120.25;10547805;28;20040;-69
2022/07/13 14:48:35;;;;;;;1.15;0.57;;;;;;;31.38;24.48;100117.63;10547933;28;20523;-67
2022/07/13 14:53:57;;;;;;;1.45;0.43;;;;;;;31.76;24.04;100103.22;10547818;28;20089;-68
2022/07/13 14:58:59;;;;;;;2.17;0.52;;;;;;;31.89;24.39;100092.59;10547423;28;20036;-68
2022/07/13 15:04:01;;;;;;;2.63;0.45;;;;;;;31.92;23.64;100094.94;10546723;28;20476;-69
2022/07/13 15:09:03;;;;;;;4.45;0.47;;;;;;;31.11;24.61;100085.56;10547988;28;20036;-68
2022/07/13 15:14:16;;;;;;;2.10;0.50;;;;;;;31.63;24.31;100082.94;10545809;28;20044;-68
2022/07/13 15:19:17;;;;;;;0.93;0.40;;;;;;;31.60;23.85;100072.44;10546125;28;20046;-69
2022/07/13 15:24:19;;;;;;;1.75;0.60;;;;;;;31.52;24.34;100071.66;10546631;28;20046;-67
2022/07/13 15:29:21;;;;;;;1.40;0.50;;;;;;;31.23;24.86;100073.25;10547549;28;20485;-67
2022/07/13 15:34:22;;;;;;;1.23;0.40;;;;;;;31.93;24.48;100064.00;10544799;28;20106;-67
2022/07/13 15:39:24;;;;;;;3.80;0.47;;;;;;;32.23;24.33;100050.41;10544922;28;20044;-69
2022/07/13 15:44:26;;;;;;;1.42;0.50;;;;;;;32.05;23.66;100056.22;10546085;28;20073;-68
2022/07/13 15:49:27;;;;;;;1.23;0.40;;;;;;;31.95;23.98;100051.06;10544419;28;20055;-68
2022/07/13 15:54:31;;;;;;;2.53;0.40;;;;;;;31.93;23.69;100036.00;10544760;28;20405;-67
2022/07/13 15:59:32;;;;;;;1.85;0.50;;;;;;;32.15;23.83;100021.44;10545010;28;20397;-68
2022/07/13 16:04:34;;;;;;;2.72;0.68;;;;;;;31.98;24.31;100019.97;10544033;28;20378;-68
2022/07/13 16:09:36;;;;;;;4.30;0.60;;;;;;;31.00;25.51;100018.97;10544867;28;20044;-69
2022/07/13 16:14:37;;;;;;;2.53;0.75;;;;;;;30.63;26.13;100022.38;10525665;28;20051;-68
2022/07/13 16:19:39;;;;;;;1.13;0.47;;;;;;;30.71;26.10;100024.22;10543447;28;20043;-69
2022/07/13 16:24:51;;;;;;;0.88;0.43;;;;;;;30.50;26.41;100020.25;10543635;28;20127;-69
2022/07/13 16:29:52;;;;;;;2.63;0.80;;;;;;;30.30;27.31;100014.44;10525330;28;20123;-67
2022/07/13 16:34:54;;;;;;;0.70;0.40;;;;;;;30.40;26.74;100015.06;10542851;28;20123;-67
2022/07/13 16:39:57;;;;;;;1.95;0.50;;;;;;;30.31;27.28;100007.97;10543026;28;20086;-67
2022/07/13 16:44:59;;;;;;;1.35;0.60;;;;;;;30.18;27.71;100002.28;10542409;28;20036;-68
2022/07/13 16:50:00;;;;;;;2.58;0.70;;;;;;;30.00;28.19;100005.19;10542758;28;20094;-68
2022/07/13 16:55:05;;;;;;;3.40;0.50;;;;;;;30.09;27.49;100014.16;10542133;28;20044;-68
2022/07/13 17:00:08;;;;;;;1.50;0.50;;;;;;;29.72;28.30;100009.38;10541326;28;20076;-68
2022/07/13 17:05:10;;;;;;;1.58;0.60;;;;;;;29.93;26.92;100006.94;10542066;28;20071;-68
2022/07/13 17:10:12;;;;;;;1.25;0.60;;;;;;;29.78;27.16;100009.50;10524480;28;20051;-69
2022/07/13 17:15:14;;;;;;;0.77;0.52;;;;;;;29.70;27.53;100001.41;10542794;28;20067;-70
2022/07/13 17:20:16;;;;;;;0.73;0.50;;;;;;;29.60;27.96;100006.16;10541958;28;20047;-69
2022/07/13 17:25:18;;;;;;;1.98;0.55;;;;;;;29.49;28.37;100010.06;10540861;28;20115;-69
2022/07/13 17:30:20;;;;;;;1.42;0.60;;;;;;;29.41;28.14;100015.47;10540977;28;20101;-69
2022/07/13 17:35:22;;;;;;;1.73;0.70;;;;;;;29.65;28.97;100006.50;10544032;28;20068;-69
2022/07/13 17:40:23;;;;;;;1.10;0.60;;;;;;;29.54;29.47;100006.84;10577827;28;20122;-69
2022/07/13 17:45:25;;;;;;;0.50;0.50;;;;;;;29.43;29.24;100013.44;10540654;28;20409;-69
2022/07/13 17:50:28;;;;;;;0.80;0.70;;;;;;;29.17;30.11;100010.91;10554779;28;20047;-69
2022/07/13 17:55:29;;;;;;;1.95;0.70;;;;;;;28.94;30.48;100004.44;10582166;28;20043;-69
2022/07/13 18:00:32;;;;;;;1.52;0.60;;;;;;;28.84;30.62;100001.91;10581032;28;20043;-71
2022/07/13 18:05:34;;;;;;;1.17;0.50;;;;;;;28.87;30.65;100009.69;10580591;28;20063;-71
2022/07/13 18:10:35;;;;;;;3.90;0.70;;;;;;;28.89;30.66;99999.53;10523737;28;20050;-71
2022/07/13 18:15:37;;;;;;;1.77;0.50;;;;;;;28.71;31.50;99998.84;10538273;28;20043;-71
2022/07/13 18:20:39;;;;;;;1.45;0.70;;;;;;;28.64;31.73;100001.34;10539902;28;20044;-69
2022/07/13 18:25:41;;;;;;;1.42;0.47;;;;;;;28.54;31.15;100006.91;10540205;28;20086;-70
2022/07/13 18:30:43;;;;;;;0.82;0.50;;;;;;;28.50;30.92;100002.00;10539861;28;20046;-70
2022/07/13 18:35:52;;;;;;;0.77;0.60;;;;;;;28.42;30.74;100002.81;10539632;28;20048;-70
2022/07/13 18:40:54;;;;;;;0.70;0.52;;;;;;;28.24;31.12;100005.59;10539709;28;20050;-71
2022/07/13 18:45:56;;;;;;;0.50;0.45;;;;;;;28.19;31.38;100007.09;10539434;28;20036;-70
2022/07/13 18:50:57;;;;;;;1.65;0.70;;;;;;;28.10;31.37;100000.81;10538898;28;20060;-70
2022/07/13 18:55:59;;;;;;;1.75;0.60;;;;;;;27.99;31.64;100006.53;10539814;28;20062;-70
2022/07/13 19:01:02;;;;;;;3.40;0.77;;;;;;;27.83;31.77;100001.88;10539924;28;20040;-70
2022/07/13 19:06:05;;;;;;;3.08;0.70;;;;;;;27.87;31.58;100012.19;10539624;28;20036;-70
2022/07/13 19:11:08;;;;;;;2.72;0.60;;;;;;;27.83;31.51;100012.69;10539910;28;20040;-71
2022/07/13 19:16:11;;;;;;;1.48;0.60;;;;;;;27.67;31.68;100010.72;10533296;28;20052;-71
2022/07/13 19:21:13;;;;;;;0.95;0.70;;;;;;;27.63;31.99;100015.59;10572560;28;20502;-71
2022/07/13 19:31:35;;;;;;;1.77;0.60;;;;;;;27.44;32.19;100031.13;10571050;28;20039;-71
2022/07/13 19:36:41;;;;;;;2.15;0.77;;;;;;;27.34;32.44;100028.53;10589438;28;20036;-72
2022/07/13 19:41:42;;;;;;;4.13;0.70;;;;;;;27.35;32.30;100031.06;10571225;28;20503;-70
2022/07/13 19:46:44;;;;;;;5.18;0.88;;;;;;;27.24;32.87;100033.19;10572634;28;20051;-70
2022/07/13 19:51:46;;;;;;;1.20;0.70;;;;;;;27.19;33.10;100038.19;10588773;28;20134;-70
2022/07/13 19:56:48;;;;;;;2.25;0.93;;;;;;;27.06;33.12;100038.56;10570002;28;20422;-70
2022/07/13 20:01:52;;;;;;;1.90;0.70;;;;;;;27.07;33.41;100033.00;10587448;28;20043;-70
2022/07/13 20:06:54;;;;;;;1.92;0.80;;;;;;;27.03;33.28;100037.00;10587417;28;20049;-70
2022/07/13 20:11:55;;;;;;;2.80;0.85;;;;;;;27.06;33.34;100043.94;10587118;28;20043;-70
2022/07/13 20:16:57;;;;;;;1.02;0.80;;;;;;;26.91;33.75;100035.53;10586913;28;20043;-70
2022/07/13 20:22:00;;;;;;;2.08;0.70;;;;;;;26.95;33.87;100038.75;10586184;28;20510;-70
2022/07/13 20:27:02;;;;;;;0.90;0.68;;;;;;;26.84;34.19;100047.94;10586337;28;20043;-70
2022/07/13 20:32:09;;;;;;;2.03;0.70;;;;;;;26.73;34.19;100049.00;10586295;28;20043;-70
2022/07/13 20:37:11;;;;;;;1.45;0.70;;;;;;;26.72;34.58;100046.47;10585186;28;20127;-70
2022/07/13 20:42:13;;;;;;;2.03;0.60;;;;;;;26.76;34.45;100045.16;10589845;28;20081;-70
2022/07/13 20:47:16;;;;;;;0.60;0.60;;;;;;;26.58;34.56;100048.69;10586129;28;20035;-70
2022/07/13 20:52:18;;;;;;;1.58;0.60;;;;;;;26.48;34.94;100055.13;10586038;28;20111;-70
2022/07/13 20:57:20;;;;;;;0.93;0.60;;;;;;;26.35;34.90;100053.59;10584875;28;20044;-71
2022/07/13 21:02:22;;;;;;;0.80;0.70;;;;;;;26.16;35.66;100056.38;10584757;28;20035;-71
2022/07/13 21:07:24;;;;;;;1.65;0.80;;;;;;;26.21;35.16;100061.31;10583884;28;20044;-70
2022/07/13 21:12:26;;;;;;;3.88;0.70;;;;;;;26.22;35.09;100066.56;10584702;28;20109;-71
2022/07/13 21:17:27;;;;;;;1.23;0.70;;;;;;;26.19;35.45;100066.00;10555242;28;20040;-70
2022/07/13 21:22:29;;;;;;;1.08;0.70;;;;;;;26.10;35.28;100073.97;10523255;28;20048;-70
2022/07/13 21:27:31;;;;;;;1.25;0.70;;;;;;;26.05;35.39;100070.88;10542743;28;20040;-70
2022/07/13 21:32:33;;;;;;;2.67;0.90;;;;;;;26.05;35.90;100070.88;10541764;28;20044;-70
2022/07/13 21:37:34;;;;;;;1.90;0.65;;;;;;;25.89;35.84;100076.88;10542452;28;20050;-69
2022/07/13 21:42:36;;;;;;;0.73;0.65;;;;;;;25.81;36.35;100070.53;10541759;28;20048;-70
2022/07/13 21:47:38;;;;;;;1.35;0.80;;;;;;;25.74;36.38;100069.38;10541793;28;20044;-71
2022/07/13 21:52:40;;;;;;;0.65;0.50;;;;;;;25.62;36.76;100068.69;10542336;28;20043;-71
2022/07/13 21:57:41;;;;;;;1.13;0.90;;;;;;;25.74;36.58;100074.78;10541235;28;20040;-71
2022/07/13 22:02:45;;;;;;;2.08;0.80;;;;;;;25.63;36.59;100070.38;10541637;28;20048;-71
2022/07/13 22:07:46;;;;;;;2.95;0.73;;;;;;;25.52;36.97;100070.56;10541853;28;20451;-70
2022/07/13 22:13:25;;;;;;;3.38;0.80;;;;;;;25.53;37.17;100070.41;10540789;28;20055;-71
2022/07/13 22:19:04;;;;;;;2.25;0.95;;;;;;;25.42;37.55;100065.19;10540252;28;20105;-69
2022/07/13 22:24:43;;;;;;;2.88;0.82;;;;;;;25.25;38.00;100064.06;10539160;28;20040;-69
2022/07/13 22:30:22;;;;;;;2.92;0.80;;;;;;;25.21;38.31;100069.88;10540105;28;20054;-70
2022/07/13 22:36:01;;;;;;;1.85;0.75;;;;;;;25.01;38.54;100061.75;10539637;28;20079;-69
2022/07/13 22:41:41;;;;;;;2.20;0.77;;;;;;;24.68;39.71;100057.63;10539568;28;20044;-70
2022/07/13 22:47:20;;;;;;;4.28;0.77;;;;;;;24.62;39.69;100056.34;10539292;28;20489;-70
2022/07/13 22:52:59;;;;;;;11.48;0.95;;;;;;;24.62;39.73;100059.03;10539673;28;20044;-70
2022/07/13 22:58:38;;;;;;;3.38;0.85;;;;;;;24.44;40.21;100063.38;10538058;28;20086;-71
2022/07/13 23:04:17;;;;;;;2.47;0.80;;;;;;;24.32;40.43;100065.28;10546681;28;20076;-71
2022/07/13 23:09:56;;;;;;;0.98;0.70;;;;;;;24.11;41.10;100073.38;10546483;28;20437;-70
2022/07/13 23:15:35;;;;;;;1.48;0.70;;;;;;;24.27;40.85;100080.09;10545157;28;20048;-70
2022/07/13 23:21:15;;;;;;;2.55;0.65;;;;;;;24.26;40.95;100081.94;10546348;28;20524;-70
2022/07/13 23:26:54;;;;;;;1.77;0.80;;;;;;;24.14;41.45;100074.97;10547459;28;20040;-70
2022/07/13 23:32:01;;;;;;;2.55;0.95;;;;;;;23.94;41.96;100081.19;10546354;28;20421;-70